Архив погоды в Магадане

Метеограмма Магадан
Суббота, 23 Июня
Время местн. Темп Ветер Видим Явления Облачность нижн/средн/верх Атм. давл. Влжн Точка росы ВНГО R Сост. почвы Tg s
Напр Скр Прв ур.ст ур.м изм
22:00 +14.8° В 2 - 50 км - преимущественно облачно 747 757 +1.1 51% +4.9° 1.5 км - - - -
19:00 +18.7° В 2 12 более 50 км - преимущественно облачно 746 756 +0.8 35% +3.1° более 2.5 км 0 - - -
16:00 +19.3° В,Ю-В 7 12 более 50 км - преимущественно облачно 745 755 -0.2 39% +5.1° 1 км - - - -
13:00 +19.1° В 7 12 50 км - облачно 745 755 +0.1 41% +5.6° 1.5 км - - - -
10:00 +18° В,Ю-В 7 11 50 км - облачно 745 755 0 48% +6.7° 1.5 км - - - -
07:00 +16° В 7 15 более 50 км - облачно с прояснениями 745 755 -0.8 54% +6.6° более 2.5 км 0 Влажная (без луж) +8° -
04:00 +10.9° В 5 10 более 50 км - переменная облачность 746 756 -0.5 76% +6.9° более 2.5 км - - - -
01:00 +10.6° В 6 13 более 50 км - переменная облачность 747 757 -1.1 81% +7.5° 1 км - - - -
Пятница, 22 Июня
Время местн. Темп Ветер Видим Явления Облачность нижн/средн/верх Атм. давл. Влжн Точка росы ВНГО R Сост. почвы Tg s
Напр Скр Прв ур.ст ур.м изм
22:00 +11.4° В 4 - более 50 км - переменная облачность 748 758 +0.1 78% +7.7° 1.5 км - - - -
19:00 +14.3° В,Ю-В 3 - более 50 км - преимущественно облачно 748 758 -0.5 65% +7.8° 1.5 км 0 - - -
13:00 +10° З 4 - более 50 км - преимущественно облачно 749 760 -1 92% +8.7° 1 км - - - -
10:00 +12° С-В 3 - 50 км - облачно 750 761 -0.4 77% +8.1° 600 м - - - -
07:00 +8.8° С-В 3 - 50 км небо без изменений {ливневые осадки} облачно 751 761 +0.1 88% +6.9° 600 м 0.8 Влажная (без луж) - -
04:00 +7.6° В,С-В 4 - 20 км слабый ливневый дождь облачно 751 761 +0.1 92% +6.4° 600 м - - - -
01:00 +7.8° В 3 - 10 км слабый ливневый дождь облачно 751 761 +0.2 94% +6.9° 600 м - - - -
Четверг, 21 Июня
Время местн. Темп Ветер Видим Явления Облачность нижн/средн/верх Атм. давл. Влжн Точка росы ВНГО R Сост. почвы Tg s
Напр Скр Прв ур.ст ур.м изм
22:00 +8.5° В 3 - 10 км слабый ливневый дождь облачно 750 761 +0.6 92% +7.3° 600 м - - - -
19:00 +9.9° В,С-В 3 - 20 км слабый ливневый дождь преимущественно облачно 750 760 +0.6 83% +7.2° 1 км 0 - - -
16:00 +9.5° З,С-З 2 - 20 км слабый ливневый дождь преимущественно облачно 749 760 +0.2 87% +7.4° 1 км - - - -
13:00 +13.5° В 3 - 50 км - облачно 749 760 +0.1 66% +7.3° 1.5 км - - - -
10:00 +13.9° В,Ю-В 4 - 50 км - облачно 749 760 -1.1 61% +6.5° 1.5 км - - - -
07:00 +9° В 2 - более 50 км - облачно 750 761 -0.5 79% +5.6° 1.5 км 0 Влажная (без луж) +5° -
04:00 +4.7° В 3 - 4 км дымка {туман} преимущественно облачно 751 761 -0.6 97% +4.2° 300 м - - - -
01:00 +4.6° В 3 - 200 м туман неба не видно 751 762 -0.4 99% +4.5° - - - - -
Среда, 20 Июня
Время местн. Темп Ветер Видим Явления Облачность нижн/средн/верх Атм. давл. Влжн Точка росы ВНГО R Сост. почвы Tg s
Напр Скр Прв ур.ст ур.м изм
22:00 +5.4° В 1 - 4 км туман облачно 752 762 +0.1 98% +5.1° 300 м - - - -
19:00 +5.3° З 4 - 500 м туман неба не видно 752 762 +0.2 97% +4.9° - 0 - - -
16:00 +6.8° З 6 - 4 км дымка облачно 752 762 -0.2 93% +5.7° 300 м - - - -